Time;durP1;ratioP1;P1;durP2;ratioP2;P2;SDS_P1;SDS_P2;PMS_P1;PMS_P2;Temp;Humidity;BMP_temperature;BMP_pressure;BME280_temperature;BME280_humidity;BME280_pressure;Samples;Min_cycle;Max_cycle;Signal;HPM_P1;HPM_P2
2023/05/10 00:01:51;;;;;;;;;;;14.20;91.70;;;;;;5029734;28;20310;-86
2023/05/10 00:04:17;;;;;;;;;;;14.20;92.10;;;;;;5034120;28;20367;-85
2023/05/10 00:06:42;;;;;;;;;;;14.30;91.90;;;;;;5031333;28;20310;-85
2023/05/10 00:09:08;;;;;;;;;;;14.20;91.80;;;;;;5027744;28;20267;-85
2023/05/10 00:11:33;;;;;;;;;;;14.10;92.00;;;;;;5030294;28;19920;-85
2023/05/10 00:13:59;;;;;;;;;;;14.10;92.20;;;;;;5031469;28;19921;-85
2023/05/10 00:16:24;;;;;;;;;;;14.10;92.30;;;;;;5033648;28;19920;-85
2023/05/10 00:18:50;;;;;;;;;;;14.20;92.10;;;;;;5029863;28;20041;-84
2023/05/10 00:21:15;;;;;;;;;;;14.20;92.20;;;;;;5027751;28;19917;-84
2023/05/10 00:23:40;;;;;;;;;;;14.20;92.20;;;;;;5031118;28;19944;-85
2023/05/10 00:26:06;;;;;;;;;;;14.20;91.80;;;;;;5031130;28;19971;-84
2023/05/10 00:28:31;;;;;;;;;;;14.30;92.00;;;;;;5029727;28;19918;-84
2023/05/10 00:30:57;;;;;;;;;;;14.30;91.30;;;;;;5040678;28;19920;-84
2023/05/10 00:33:22;;;;;;;;;;;14.20;91.50;;;;;;5039822;28;19936;-85
2023/05/10 00:35:48;;;;;;;;;;;14.10;91.70;;;;;;5036649;28;20196;-84
2023/05/10 00:38:14;;;;;;;;;;;14.30;91.40;;;;;;5053729;28;19924;-84
2023/05/10 00:40:39;;;;;;;;;;;14.30;91.30;;;;;;5044939;28;19948;-84
2023/05/10 00:43:05;;;;;;;;;;;14.20;91.20;;;;;;5042962;28;19921;-84
2023/05/10 00:45:35;;;;;;;;;;;14.20;91.60;;;;;;5042999;28;19913;-84
2023/05/10 00:48:02;;;;;;;;;;;14.20;91.40;;;;;;5040407;28;19917;-84
2023/05/10 00:50:27;;;;;;;;;;;14.10;91.50;;;;;;5040246;28;19913;-84
2023/05/10 00:52:53;;;;;;;;;;;14.10;91.30;;;;;;5042890;28;19963;-84
2023/05/10 00:55:18;;;;;;;;;;;14.10;91.50;;;;;;5036105;28;19913;-84
2023/05/10 00:57:44;;;;;;;;;;;14.10;91.80;;;;;;5039443;28;19949;-84
2023/05/10 01:00:11;;;;;;;;;;;14.10;91.60;;;;;;5040945;28;20300;-84
2023/05/10 01:02:36;;;;;;;;;;;14.10;91.70;;;;;;5038894;28;20353;-84
2023/05/10 01:05:03;;;;;;;;;;;14.10;91.80;;;;;;5046074;28;19917;-85
2023/05/10 01:07:28;;;;;;;;;;;14.10;91.90;;;;;;5031924;28;19914;-85
2023/05/10 01:09:54;;;;;;;;;;;14.30;91.80;;;;;;5038162;28;19967;-85
2023/05/10 01:12:20;;;;;;;;;;;14.10;91.60;;;;;;5048620;28;19913;-85
2023/05/10 01:14:46;;;;;;;;;;;14.20;91.40;;;;;;5038309;28;19936;-86
2023/05/10 01:17:12;;;;;;;;;;;14.20;91.60;;;;;;5036520;28;19921;-85
2023/05/10 01:19:37;;;;;;;;;;;14.20;91.80;;;;;;5036810;28;19920;-85
2023/05/10 01:22:12;;;;;;;;;;;14.20;91.90;;;;;;5032279;28;19948;-85
2023/05/10 01:24:44;;;;;;;;;;;14.30;91.70;;;;;;5054159;28;19944;-85
2023/05/10 01:27:28;;;;;;;;;;;14.20;91.60;;;;;;5042793;28;20278;-85
2023/05/10 01:29:59;;;;;;;;;;;14.20;92.00;;;;;;5033266;28;20514;-85
2023/05/10 01:32:29;;;;;;;;;;;14.20;91.80;;;;;;5037437;28;19967;-85
2023/05/10 01:34:57;;;;;;;;;;;14.10;91.70;;;;;;5037321;28;20306;-84
2023/05/10 01:37:41;;;;;;;;;;;14.10;91.80;;;;;;5032052;28;20589;-85
2023/05/10 01:40:18;;;;;;;;;;;14.00;92.00;;;;;;5033516;28;19913;-85
2023/05/10 01:42:49;;;;;;;;;;;14.10;92.20;;;;;;5035141;28;19923;-85
2023/05/10 01:45:27;;;;;;;;;;;14.10;91.60;;;;;;5031920;28;19921;-85
2023/05/10 01:48:05;;;;;;;;;;;14.10;91.50;;;;;;5028825;28;19967;-85
2023/05/10 01:50:32;;;;;;;;;;;14.10;90.90;;;;;;5028387;28;19913;-85
2023/05/10 01:52:58;;;;;;;;;;;14.10;90.40;;;;;;5027659;28;21116;-84
2023/05/10 01:55:27;;;;;;;;;;;14.00;90.60;;;;;;5034779;28;20290;-84
2023/05/10 01:57:56;;;;;;;;;;;14.00;91.10;;;;;;5031688;28;20275;-85
2023/05/10 02:00:22;;;;;;;;;;;14.00;90.50;;;;;;5032944;28;19921;-85
2023/05/10 02:02:49;;;;;;;;;;;14.00;90.60;;;;;;5033362;28;19939;-85
2023/05/10 02:05:15;;;;;;;;;;;14.00;91.10;;;;;;5037196;28;20378;-85
2023/05/10 02:07:40;;;;;;;;;;;14.00;91.50;;;;;;5030602;28;20290;-85
2023/05/10 02:10:10;;;;;;;;;;;14.00;90.60;;;;;;5024467;28;19914;-85
2023/05/10 02:12:36;;;;;;;;;;;14.00;90.60;;;;;;5033782;28;19920;-84
2023/05/10 02:15:02;;;;;;;;;;;14.10;90.00;;;;;;5034213;28;20329;-84
2023/05/10 02:17:28;;;;;;;;;;;14.10;90.20;;;;;;5029715;28;19944;-85
2023/05/10 02:19:55;;;;;;;;;;;14.00;90.20;;;;;;5034237;28;20418;-85
2023/05/10 02:22:21;;;;;;;;;;;13.90;90.30;;;;;;5031424;28;19917;-84
2023/05/10 02:24:47;;;;;;;;;;;13.80;90.70;;;;;;5034683;28;19931;-85
2023/05/10 02:27:13;;;;;;;;;;;13.90;91.30;;;;;;5028910;28;20008;-85
2023/05/10 02:29:39;;;;;;;;;;;14.00;91.10;;;;;;5041276;28;19909;-84
2023/05/10 02:32:05;;;;;;;;;;;14.00;90.40;;;;;;5053970;28;20008;-84
2023/05/10 02:34:31;;;;;;;;;;;13.90;90.70;;;;;;5038252;28;20295;-84
2023/05/10 02:36:57;;;;;;;;;;;13.90;90.20;;;;;;5049269;28;19924;-84
2023/05/10 02:39:24;;;;;;;;;;;14.00;89.90;;;;;;5037756;28;20378;-85
2023/05/10 02:41:50;;;;;;;;;;;14.00;89.30;;;;;;5037633;28;19925;-84
2023/05/10 02:44:18;;;;;;;;;;;13.80;89.90;;;;;;5035395;28;19928;-84
2023/05/10 02:46:44;;;;;;;;;;;13.80;90.30;;;;;;5042120;28;19944;-85
2023/05/10 02:49:09;;;;;;;;;;;13.80;89.50;;;;;;5036297;28;19921;-85
2023/05/10 02:51:37;;;;;;;;;;;13.80;89.90;;;;;;5036680;28;20372;-85
2023/05/10 02:54:13;;;;;;;;;;;13.80;89.40;;;;;;5032638;28;19913;-85
2023/05/10 02:56:42;;;;;;;;;;;13.70;89.50;;;;;;5037652;28;19910;-85
2023/05/10 02:59:08;;;;;;;;;;;13.70;90.00;;;;;;5033148;28;20364;-85
2023/05/10 03:01:33;;;;;;;;;;;13.80;90.40;;;;;;5036687;28;19913;-85
2023/05/10 03:03:59;;;;;;;;;;;13.70;90.50;;;;;;5028477;28;20063;-85
2023/05/10 03:06:24;;;;;;;;;;;13.80;90.50;;;;;;5035404;28;19920;-85
2023/05/10 03:08:50;;;;;;;;;;;13.80;90.80;;;;;;5031843;28;19924;-84
2023/05/10 03:11:21;;;;;;;;;;;13.80;90.30;;;;;;5033296;28;19913;-85
2023/05/10 03:13:47;;;;;;;;;;;13.80;90.40;;;;;;5030585;28;19936;-85
2023/05/10 03:16:18;;;;;;;;;;;13.80;90.70;;;;;;5038355;28;20389;-84
2023/05/10 03:19:13;;;;;;;;;;;13.70;90.70;;;;;;5034136;28;20283;-85
2023/05/10 03:21:41;;;;;;;;;;;13.70;90.70;;;;;;5034811;28;19917;-85
2023/05/10 03:24:07;;;;;;;;;;;13.70;90.90;;;;;;5027418;28;19913;-85
2023/05/10 03:26:33;;;;;;;;;;;13.60;91.10;;;;;;5021927;28;20386;-84
2023/05/10 03:29:00;;;;;;;;;;;13.60;91.10;;;;;;5031295;28;20121;-84
2023/05/10 03:31:25;;;;;;;;;;;13.60;91.30;;;;;;5033947;28;19909;-85
2023/05/10 03:33:51;;;;;;;;;;;13.70;91.50;;;;;;5047651;28;20306;-84
2023/05/10 03:36:17;;;;;;;;;;;13.60;91.30;;;;;;5030936;28;19968;-85
2023/05/10 03:38:42;;;;;;;;;;;13.60;91.50;;;;;;5027095;28;19913;-85
2023/05/10 03:41:08;;;;;;;;;;;13.60;91.60;;;;;;5032387;28;20092;-84
2023/05/10 03:43:33;;;;;;;;;;;13.60;91.40;;;;;;5031666;28;19916;-85
2023/05/10 03:46:01;;;;;;;;;;;13.60;91.40;;;;;;5032758;28;21504;-84
2023/05/10 03:48:26;;;;;;;;;;;13.60;91.70;;;;;;5033461;28;19942;-84
2023/05/10 03:50:52;;;;;;;;;;;13.60;91.60;;;;;;5039308;28;19963;-84
2023/05/10 03:53:17;;;;;;;;;;;13.60;91.30;;;;;;5031174;28;19913;-84
2023/05/10 03:55:43;;;;;;;;;;;13.60;91.40;;;;;;5030932;28;19915;-85
2023/05/10 03:58:10;;;;;;;;;;;13.60;91.50;;;;;;5035683;28;20003;-84
2023/05/10 04:00:36;;;;;;;;;;;13.60;91.70;;;;;;5030806;28;19913;-84
2023/05/10 04:03:01;;;;;;;;;;;13.70;91.80;;;;;;5042471;28;19916;-85
2023/05/10 04:05:26;;;;;;;;;;;13.70;91.70;;;;;;5038518;28;19935;-84
2023/05/10 04:07:52;;;;;;;;;;;13.70;91.50;;;;;;5029473;28;20363;-84
2023/05/10 04:10:17;;;;;;;;;;;13.80;91.60;;;;;;5032529;28;19920;-85
2023/05/10 04:12:43;;;;;;;;;;;13.80;91.40;;;;;;5037482;28;19978;-85
2023/05/10 04:15:08;;;;;;;;;;;13.80;91.40;;;;;;5031005;28;20080;-85
2023/05/10 04:17:34;;;;;;;;;;;13.80;91.20;;;;;;5029530;28;19920;-84
2023/05/10 04:19:59;;;;;;;;;;;13.70;91.20;;;;;;5031911;28;19948;-84
2023/05/10 04:22:25;;;;;;;;;;;13.70;91.40;;;;;;5028958;28;19918;-84
2023/05/10 04:24:50;;;;;;;;;;;13.70;91.50;;;;;;5029638;28;19917;-85
2023/05/10 04:27:16;;;;;;;;;;;13.70;91.40;;;;;;5028442;28;19914;-84
2023/05/10 04:29:41;;;;;;;;;;;13.70;91.40;;;;;;5025357;28;20394;-85
2023/05/10 04:32:07;;;;;;;;;;;13.80;91.30;;;;;;5031047;28;19955;-85
2023/05/10 04:34:34;;;;;;;;;;;13.80;91.10;;;;;;5033104;28;19968;-85
2023/05/10 04:36:59;;;;;;;;;;;13.80;91.30;;;;;;5022047;28;19928;-84
2023/05/10 04:39:25;;;;;;;;;;;13.80;91.10;;;;;;5030563;28;20012;-84
2023/05/10 04:41:50;;;;;;;;;;;13.80;91.20;;;;;;5028507;28;20011;-85
2023/05/10 04:44:16;;;;;;;;;;;13.80;91.20;;;;;;5039965;28;19925;-85
2023/05/10 04:46:41;;;;;;;;;;;13.80;91.20;;;;;;5026618;28;19952;-84
2023/05/10 04:49:06;;;;;;;;;;;13.70;91.20;;;;;;5030134;28;19919;-85
2023/05/10 04:51:32;;;;;;;;;;;13.80;91.40;;;;;;5027576;28;19924;-84
2023/05/10 04:53:57;;;;;;;;;;;13.80;91.40;;;;;;5027610;28;19917;-84
2023/05/10 04:56:23;;;;;;;;;;;13.90;91.10;;;;;;5020360;28;19916;-84
2023/05/10 04:58:49;;;;;;;;;;;13.80;91.10;;;;;;5023770;28;19920;-84
2023/05/10 05:01:14;;;;;;;;;;;13.70;91.30;;;;;;5027911;28;19960;-85
2023/05/10 05:03:46;;;;;;;;;;;13.70;91.30;;;;;;5031826;28;20370;-85
2023/05/10 05:06:11;;;;;;;;;;;13.70;91.60;;;;;;5033148;28;20000;-85
2023/05/10 05:08:37;;;;;;;;;;;13.70;91.60;;;;;;5031913;28;19963;-89
2023/05/10 05:11:02;;;;;;;;;;;13.70;91.60;;;;;;5026899;28;19917;-87
2023/05/10 05:13:28;;;;;;;;;;;13.70;91.60;;;;;;5026183;28;19932;-87
2023/05/10 05:15:54;;;;;;;;;;;13.60;91.70;;;;;;5029743;28;20016;-86
2023/05/10 05:18:20;;;;;;;;;;;13.70;92.00;;;;;;5033587;28;20358;-86
2023/05/10 05:20:45;;;;;;;;;;;13.70;92.10;;;;;;5030388;28;19920;-86
2023/05/10 05:23:10;;;;;;;;;;;13.80;92.00;;;;;;5031004;28;20013;-85
2023/05/10 05:25:36;;;;;;;;;;;13.80;91.90;;;;;;5031503;28;19939;-85
2023/05/10 05:28:02;;;;;;;;;;;13.80;92.00;;;;;;5047015;28;20437;-86
2023/05/10 05:30:27;;;;;;;;;;;13.90;91.50;;;;;;5027220;28;20290;-87
2023/05/10 05:32:53;;;;;;;;;;;13.90;91.60;;;;;;5033138;28;19913;-84
2023/05/10 05:35:21;;;;;;;;;;;14.00;91.20;;;;;;5031849;28;19921;-85
2023/05/10 05:37:46;;;;;;;;;;;13.90;91.20;;;;;;5047532;28;19913;-84
2023/05/10 05:40:12;;;;;;;;;;;13.90;91.50;;;;;;5045933;28;19975;-85
2023/05/10 05:42:38;;;;;;;;;;;14.00;91.50;;;;;;5032306;28;19917;-87
2023/05/10 05:45:04;;;;;;;;;;;14.00;91.50;;;;;;5026990;28;20003;-85
2023/05/10 05:47:29;;;;;;;;;;;14.00;91.60;;;;;;5028695;28;21135;-85
2023/05/10 05:49:55;;;;;;;;;;;14.10;91.70;;;;;;5025496;28;19924;-85
2023/05/10 05:52:21;;;;;;;;;;;14.10;91.40;;;;;;5032982;28;19913;-85
2023/05/10 05:54:46;;;;;;;;;;;14.10;91.10;;;;;;5034125;28;19932;-84
2023/05/10 05:57:12;;;;;;;;;;;14.10;91.40;;;;;;5032980;28;19913;-85
2023/05/10 05:59:41;;;;;;;;;;;14.10;91.00;;;;;;5033910;28;19932;-84
2023/05/10 06:02:07;;;;;;;;;;;14.10;91.00;;;;;;5035691;28;19917;-85
2023/05/10 06:04:33;;;;;;;;;;;14.10;91.30;;;;;;5031315;28;19913;-85
2023/05/10 06:06:58;;;;;;;;;;;14.10;91.00;;;;;;5032138;28;20051;-85
2023/05/10 06:09:24;;;;;;;;;;;14.10;91.30;;;;;;5024283;28;19948;-85
2023/05/10 06:11:49;;;;;;;;;;;14.10;90.90;;;;;;5042846;28;19917;-85
2023/05/10 06:14:15;;;;;;;;;;;14.10;90.90;;;;;;5064314;28;19967;-85
2023/05/10 06:16:40;;;;;;;;;;;14.10;90.80;;;;;;5042832;28;19909;-85
2023/05/10 06:19:06;;;;;;;;;;;14.10;91.30;;;;;;5037900;28;19913;-85
2023/05/10 06:21:31;;;;;;;;;;;14.30;90.80;;;;;;5037085;28;19946;-85
2023/05/10 06:23:57;;;;;;;;;;;14.30;91.10;;;;;;5036783;28;19920;-85
2023/05/10 06:26:22;;;;;;;;;;;14.20;90.80;;;;;;5036945;28;19936;-86
2023/05/10 06:28:48;;;;;;;;;;;14.20;90.40;;;;;;5034273;28;20319;-85
2023/05/10 06:31:13;;;;;;;;;;;14.10;90.80;;;;;;5034465;28;19917;-85
2023/05/10 06:33:38;;;;;;;;;;;14.10;90.40;;;;;;5036951;28;19920;-85
2023/05/10 06:36:04;;;;;;;;;;;14.10;90.60;;;;;;5034966;28;19909;-85
2023/05/10 06:38:29;;;;;;;;;;;14.10;91.00;;;;;;5035966;28;19924;-85
2023/05/10 06:40:55;;;;;;;;;;;14.20;90.80;;;;;;5037906;28;19909;-85
2023/05/10 06:43:21;;;;;;;;;;;14.20;90.50;;;;;;5034655;28;20183;-86
2023/05/10 06:45:47;;;;;;;;;;;14.30;90.90;;;;;;5047748;28;20013;-87
2023/05/10 06:48:12;;;;;;;;;;;14.40;90.80;;;;;;5034867;28;19917;-85
2023/05/10 06:50:38;;;;;;;;;;;14.40;90.80;;;;;;5032775;28;20058;-86
2023/05/10 06:53:03;;;;;;;;;;;14.50;90.80;;;;;;5031586;28;19925;-87
2023/05/10 06:55:29;;;;;;;;;;;14.60;90.90;;;;;;5032747;28;19927;-86
2023/05/10 06:57:57;;;;;;;;;;;14.60;90.40;;;;;;5031230;28;19913;-86
2023/05/10 07:00:24;;;;;;;;;;;14.80;90.30;;;;;;5029799;28;20340;-86
2023/05/10 07:02:50;;;;;;;;;;;14.90;90.40;;;;;;5030817;28;19972;-87
2023/05/10 07:05:17;;;;;;;;;;;15.00;90.00;;;;;;5026008;28;19910;-87
2023/05/10 07:07:42;;;;;;;;;;;15.00;89.60;;;;;;5029478;28;19920;-86
2023/05/10 07:10:08;;;;;;;;;;;15.00;89.10;;;;;;5031185;28;19909;-87
2023/05/10 07:12:34;;;;;;;;;;;15.00;89.10;;;;;;5030929;28;20043;-87
2023/05/10 07:14:59;;;;;;;;;;;15.00;89.30;;;;;;5025514;28;19933;-87
2023/05/10 07:17:25;;;;;;;;;;;15.00;89.20;;;;;;5032760;28;19963;-87
2023/05/10 07:19:53;;;;;;;;;;;15.10;89.20;;;;;;5034370;28;19921;-88
2023/05/10 07:22:19;;;;;;;;;;;15.20;88.80;;;;;;5039145;28;19928;-86
2023/05/10 07:24:45;;;;;;;;;;;15.30;88.50;;;;;;5030522;28;20299;-85
2023/05/10 07:27:10;;;;;;;;;;;15.30;87.70;;;;;;5035155;28;19944;-85
2023/05/10 07:29:37;;;;;;;;;;;15.50;87.50;;;;;;5030371;28;19955;-86
2023/05/10 07:32:02;;;;;;;;;;;15.50;87.30;;;;;;5031133;28;19956;-86
2023/05/10 07:34:29;;;;;;;;;;;15.60;87.10;;;;;;5024335;28;20375;-86
2023/05/10 07:36:59;;;;;;;;;;;15.50;86.80;;;;;;5046659;28;19908;-86
2023/05/10 07:39:25;;;;;;;;;;;15.60;87.00;;;;;;5028157;28;19917;-85
2023/05/10 07:41:51;;;;;;;;;;;15.50;86.90;;;;;;5031546;28;19932;-86
2023/05/10 07:44:18;;;;;;;;;;;15.50;87.10;;;;;;5027967;28;19913;-85
2023/05/10 07:46:44;;;;;;;;;;;15.50;86.60;;;;;;5029682;28;19936;-84
2023/05/10 07:49:09;;;;;;;;;;;15.50;86.70;;;;;;5031479;28;19917;-84
2023/05/10 07:51:35;;;;;;;;;;;15.60;86.70;;;;;;5027431;28;19913;-85
2023/05/10 07:54:02;;;;;;;;;;;15.60;86.60;;;;;;5026526;28;20399;-85
2023/05/10 07:56:36;;;;;;;;;;;15.50;87.20;;;;;;5031202;28;19925;-85
2023/05/10 07:59:08;;;;;;;;;;;15.50;86.90;;;;;;5029902;28;19926;-86
2023/05/10 08:01:34;;;;;;;;;;;15.50;87.10;;;;;;5024684;28;20239;-86
2023/05/10 08:04:00;;;;;;;;;;;15.50;87.50;;;;;;5029769;28;20003;-86
2023/05/10 08:06:29;;;;;;;;;;;15.30;87.80;;;;;;5028150;28;20387;-86
2023/05/10 08:08:55;;;;;;;;;;;15.30;87.50;;;;;;5030913;28;19924;-86
2023/05/10 08:11:21;;;;;;;;;;;15.50;87.80;;;;;;5029542;28;19929;-87
2023/05/10 08:13:48;;;;;;;;;;;15.60;87.40;;;;;;5034118;28;20024;-88
2023/05/10 08:16:20;;;;;;;;;;;15.80;87.20;;;;;;5030323;28;19929;-90
2023/05/10 08:18:46;;;;;;;;;;;15.90;86.60;;;;;;5029909;28;20004;-87
2023/05/10 08:21:12;;;;;;;;;;;15.90;86.50;;;;;;5028542;28;19951;-88
2023/05/10 08:23:37;;;;;;;;;;;15.90;86.00;;;;;;5029839;28;19952;-89
2023/05/10 08:26:03;;;;;;;;;;;15.90;86.70;;;;;;5030328;28;19909;-88
2023/05/10 08:28:28;;;;;;;;;;;15.90;86.70;;;;;;5027977;28;19919;-87
2023/05/10 08:30:54;;;;;;;;;;;15.90;86.70;;;;;;5029113;28;20436;-86
2023/05/10 08:33:19;;;;;;;;;;;15.90;85.80;;;;;;5029807;28;19917;-85
2023/05/10 08:35:45;;;;;;;;;;;15.80;85.70;;;;;;5027509;28;20341;-85
2023/05/10 08:38:10;;;;;;;;;;;15.70;85.50;;;;;;5028617;28;19920;-84
2023/05/10 08:40:42;;;;;;;;;;;15.70;86.30;;;;;;5032014;28;19970;-84
2023/05/10 08:43:12;;;;;;;;;;;15.70;86.10;;;;;;5026869;28;19924;-85
2023/05/10 08:45:38;;;;;;;;;;;15.50;86.00;;;;;;5022339;28;19921;-88
2023/05/10 08:48:11;;;;;;;;;;;15.50;85.50;;;;;;4948000;28;1812302;-84
2023/05/10 08:50:46;;;;;;;;;;;15.30;86.00;;;;;;5042594;28;19921;-83
2023/05/10 08:53:26;;;;;;;;;;;15.30;86.00;;;;;;5032331;28;19990;-84
2023/05/10 08:55:52;;;;;;;;;;;15.20;86.30;;;;;;5033746;28;19917;-84
2023/05/10 08:58:28;;;;;;;;;;;15.30;87.00;;;;;;5034265;28;19920;-84
2023/05/10 09:01:17;;;;;;;;;;;;;;;;;;;;;
2023/05/10 09:04:05;;;;;;;;;;;15.50;86.60;;;;;;5034959;28;19923;-85
2023/05/10 09:06:32;;;;;;;;;;;15.70;86.10;;;;;;5034066;28;19916;-84
2023/05/10 09:09:05;;;;;;;;;;;15.70;85.30;;;;;;5033860;28;19925;-84
2023/05/10 09:11:41;;;;;;;;;;;15.80;85.60;;;;;;5033854;28;19913;-84
2023/05/10 09:14:12;;;;;;;;;;;16.00;85.40;;;;;;5032480;28;19913;-84
2023/05/10 09:16:41;;;;;;;;;;;16.10;84.30;;;;;;5033670;28;19916;-85
2023/05/10 09:19:08;;;;;;;;;;;16.20;84.10;;;;;;5033919;28;19913;-84
2023/05/10 09:21:39;;;;;;;;;;;16.30;83.90;;;;;;5033769;28;19920;-84
2023/05/10 09:24:05;;;;;;;;;;;16.20;83.70;;;;;;5032972;28;20000;-85
2023/05/10 09:26:31;;;;;;;;;;;16.20;84.10;;;;;;5033742;28;19909;-84
2023/05/10 09:28:57;;;;;;;;;;;16.30;83.80;;;;;;5034823;28;20067;-84
2023/05/10 09:31:24;;;;;;;;;;;16.30;83.50;;;;;;5034055;28;20263;-84
2023/05/10 09:33:50;;;;;;;;;;;16.30;83.10;;;;;;5033855;28;20413;-85
2023/05/10 09:36:16;;;;;;;;;;;16.50;82.10;;;;;;5033026;28;20260;-84
2023/05/10 09:38:46;;;;;;;;;;;16.50;82.00;;;;;;5033756;28;19909;-84
2023/05/10 09:41:17;;;;;;;;;;;16.50;82.30;;;;;;5028994;28;19918;-85
2023/05/10 09:43:42;;;;;;;;;;;16.60;82.80;;;;;;5030219;28;19936;-87
2023/05/10 09:46:11;;;;;;;;;;;16.60;82.00;;;;;;5031905;28;20323;-85
2023/05/10 09:48:41;;;;;;;;;;;16.70;81.60;;;;;;5039109;28;20394;-86
2023/05/10 09:51:07;;;;;;;;;;;16.70;81.20;;;;;;5033181;28;20024;-87
2023/05/10 09:54:04;;;;;;;;;;;16.80;81.10;;;;;;5048031;28;19901;-86
2023/05/10 09:56:34;;;;;;;;;;;16.80;80.40;;;;;;5040057;28;19913;-85
2023/05/10 09:59:03;;;;;;;;;;;16.80;79.70;;;;;;5036548;28;19921;-86
2023/05/10 10:01:29;;;;;;;;;;;16.90;80.30;;;;;;5031213;28;19921;-86
2023/05/10 10:03:57;;;;;;;;;;;16.90;79.70;;;;;;5033857;28;19975;-86
2023/05/10 10:06:26;;;;;;;;;;;17.00;80.10;;;;;;5033631;28;19909;-85
2023/05/10 10:08:52;;;;;;;;;;;17.00;80.80;;;;;;5048182;28;20302;-84
2023/05/10 10:11:18;;;;;;;;;;;17.10;78.70;;;;;;5043513;28;19913;-85
2023/05/10 10:13:43;;;;;;;;;;;17.10;79.00;;;;;;5041573;28;19983;-86
2023/05/10 10:16:09;;;;;;;;;;;17.20;78.70;;;;;;5060773;28;20011;-85
2023/05/10 10:18:38;;;;;;;;;;;17.30;78.70;;;;;;5031858;28;19913;-84
2023/05/10 10:21:08;;;;;;;;;;;17.40;79.00;;;;;;5032886;28;20196;-84
2023/05/10 10:23:34;;;;;;;;;;;17.40;79.10;;;;;;5041034;28;20011;-84
2023/05/10 10:26:00;;;;;;;;;;;17.40;78.80;;;;;;5042236;28;19955;-84
2023/05/10 10:28:45;;;;;;;;;;;17.60;76.70;;;;;;5043765;28;19913;-84
2023/05/10 10:31:26;;;;;;;;;;;17.60;76.50;;;;;;5034801;28;19914;-85
2023/05/10 10:33:56;;;;;;;;;;;17.60;75.20;;;;;;5033460;28;20000;-85
2023/05/10 10:36:22;;;;;;;;;;;17.70;76.40;;;;;;5029473;28;19932;-84
2023/05/10 10:38:48;;;;;;;;;;;17.70;75.80;;;;;;5037753;28;19914;-84
2023/05/10 10:41:27;;;;;;;;;;;17.80;76.10;;;;;;5037275;28;19913;-82
2023/05/10 10:44:12;;;;;;;;;;;17.70;76.20;;;;;;5042132;28;19917;-84
2023/05/10 10:46:57;;;;;;;;;;;17.60;77.10;;;;;;5064095;23;20007;-86
2023/05/10 10:49:22;;;;;;;;;;;17.10;76.40;;;;;;5013178;28;19909;-86
2023/05/10 10:52:08;;;;;;;;;;;16.80;76.90;;;;;;5009273;28;19937;-85
2023/05/10 10:54:36;;;;;;;;;;;16.60;78.20;;;;;;4999274;28;19914;-86
2023/05/10 10:57:13;;;;;;;;;;;16.50;80.00;;;;;;5020876;28;19924;-86
2023/05/10 10:59:45;;;;;;;;;;;16.40;79.10;;;;;;5012683;28;19918;-84
2023/05/10 11:02:30;;;;;;;;;;;16.50;78.10;;;;;;5012804;28;19970;-84
2023/05/10 11:04:56;;;;;;;;;;;16.60;77.70;;;;;;5012939;28;19925;-84
2023/05/10 11:07:21;;;;;;;;;;;16.80;78.00;;;;;;5014281;28;19913;-84
2023/05/10 11:09:47;;;;;;;;;;;17.10;77.50;;;;;;5012830;28;19935;-86
2023/05/10 11:12:12;;;;;;;;;;;17.20;76.20;;;;;;5012915;28;19927;-85
2023/05/10 11:14:38;;;;;;;;;;;17.30;73.90;;;;;;5011110;28;19932;-86
2023/05/10 11:17:22;;;;;;;;;;;17.50;73.40;;;;;;5013644;28;20389;-85
2023/05/10 11:20:06;;;;;;;;;;;17.60;74.50;;;;;;5011703;28;19948;-86
2023/05/10 11:22:48;;;;;;;;;;;17.70;74.90;;;;;;5012777;28;19922;-85
2023/05/10 11:25:13;;;;;;;;;;;17.50;74.40;;;;;;5013378;28;20145;-85
2023/05/10 11:27:39;;;;;;;;;;;17.20;74.90;;;;;;5031921;28;19910;-84
2023/05/10 11:30:06;;;;;;;;;;;17.10;75.70;;;;;;5029916;28;19951;-84
2023/05/10 11:32:32;;;;;;;;;;;17.20;75.40;;;;;;5020299;28;19918;-85
2023/05/10 11:34:57;;;;;;;;;;;17.20;75.80;;;;;;5012157;28;19913;-86
2023/05/10 11:37:22;;;;;;;;;;;17.20;75.10;;;;;;5008210;28;19914;-84
2023/05/10 11:39:48;;;;;;;;;;;17.20;75.90;;;;;;5021741;28;19915;-84
2023/05/10 11:42:13;;;;;;;;;;;17.30;76.00;;;;;;5037160;28;19977;-85
2023/05/10 11:44:40;;;;;;;;;;;17.30;76.20;;;;;;5024966;28;19933;-84
2023/05/10 11:47:06;;;;;;;;;;;17.10;75.00;;;;;;5016763;28;19932;-85
2023/05/10 11:49:31;;;;;;;;;;;17.00;75.40;;;;;;5018203;28;19917;-85
2023/05/10 11:52:04;;;;;;;;;;;17.00;75.50;;;;;;5014502;28;19929;-85
2023/05/10 11:54:30;;;;;;;;;;;17.10;76.50;;;;;;5014642;28;19914;-85
2023/05/10 11:56:56;;;;;;;;;;;17.30;75.10;;;;;;5020050;28;19920;-85
2023/05/10 11:59:24;;;;;;;;;;;17.50;74.50;;;;;;5005064;28;19917;-86
2023/05/10 12:01:50;;;;;;;;;;;17.70;74.00;;;;;;5034536;28;19917;-85
2023/05/10 12:04:16;;;;;;;;;;;17.80;73.70;;;;;;5032629;28;20001;-84
2023/05/10 12:06:41;;;;;;;;;;;17.90;73.90;;;;;;5033564;22;19925;-86
2023/05/10 12:09:07;;;;;;;;;;;17.80;72.80;;;;;;5042673;28;19933;-84
2023/05/10 12:11:38;;;;;;;;;;;18.00;73.10;;;;;;5030159;28;19924;-84
2023/05/10 12:14:05;;;;;;;;;;;17.80;71.90;;;;;;5042545;28;19950;-87
2023/05/10 12:16:30;;;;;;;;;;;17.80;71.80;;;;;;5030074;28;20032;-86
2023/05/10 12:18:57;;;;;;;;;;;17.80;72.80;;;;;;5021398;28;20027;-83
2023/05/10 12:21:22;;;;;;;;;;;17.60;72.10;;;;;;5030960;28;19913;-82
2023/05/10 12:23:50;;;;;;;;;;;17.70;73.30;;;;;;5023203;28;20347;-83
2023/05/10 12:26:15;;;;;;;;;;;17.80;72.50;;;;;;5017169;28;19929;-84
2023/05/10 12:28:41;;;;;;;;;;;17.80;71.70;;;;;;5026285;28;19913;-84
2023/05/10 12:31:07;;;;;;;;;;;17.90;72.50;;;;;;5018674;28;19913;-86
2023/05/10 12:33:41;;;;;;;;;;;18.00;71.90;;;;;;5027051;28;19909;-83
2023/05/10 12:36:06;;;;;;;;;;;18.00;72.40;;;;;;5028064;28;19940;-83
2023/05/10 12:38:33;;;;;;;;;;;18.00;72.10;;;;;;5021276;28;20371;-84
2023/05/10 12:41:02;;;;;;;;;;;18.00;72.60;;;;;;5026299;28;19917;-84
2023/05/10 12:43:28;;;;;;;;;;;18.00;72.20;;;;;;5030450;28;19926;-83
2023/05/10 12:45:53;;;;;;;;;;;17.90;71.90;;;;;;5023053;28;19913;-85
2023/05/10 12:48:19;;;;;;;;;;;17.90;70.60;;;;;;5022326;28;19952;-84
2023/05/10 12:50:45;;;;;;;;;;;18.00;71.40;;;;;;5027067;28;20004;-83
2023/05/10 12:53:10;;;;;;;;;;;18.00;71.10;;;;;;5027053;28;19928;-84
2023/05/10 12:55:36;;;;;;;;;;;18.00;71.50;;;;;;5031408;28;19913;-84
2023/05/10 12:58:01;;;;;;;;;;;18.20;71.70;;;;;;5022365;28;19914;-84
2023/05/10 13:00:27;;;;;;;;;;;18.30;71.50;;;;;;5030201;28;19948;-84
2023/05/10 13:02:52;;;;;;;;;;;18.30;69.90;;;;;;5026998;28;19979;-84
2023/05/10 13:05:18;;;;;;;;;;;18.30;70.70;;;;;;5030402;28;20387;-84
2023/05/10 13:07:43;;;;;;;;;;;18.20;70.80;;;;;;5037284;28;20079;-85
2023/05/10 13:10:09;;;;;;;;;;;18.30;71.90;;;;;;5029707;28;20055;-88
2023/05/10 13:12:35;;;;;;;;;;;18.20;69.90;;;;;;5024192;28;20398;-83
2023/05/10 13:15:01;;;;;;;;;;;18.20;70.30;;;;;;5028625;28;19913;-84
2023/05/10 13:17:26;;;;;;;;;;;18.20;71.60;;;;;;5032296;28;20375;-83
2023/05/10 13:19:52;;;;;;;;;;;18.20;70.10;;;;;;5028338;28;19917;-84
2023/05/10 13:22:17;;;;;;;;;;;18.20;70.30;;;;;;5030873;28;20016;-84
2023/05/10 13:24:43;;;;;;;;;;;18.30;70.10;;;;;;5033763;28;19976;-84
2023/05/10 13:27:08;;;;;;;;;;;18.30;70.20;;;;;;5028116;28;19913;-84
2023/05/10 13:29:34;;;;;;;;;;;18.30;68.40;;;;;;5028437;28;20035;-83
2023/05/10 13:31:59;;;;;;;;;;;18.30;69.60;;;;;;5037596;28;19920;-84
2023/05/10 13:34:25;;;;;;;;;;;18.20;69.70;;;;;;5039025;28;19917;-83
2023/05/10 13:36:51;;;;;;;;;;;18.10;70.00;;;;;;5036246;28;19923;-85
2023/05/10 13:39:16;;;;;;;;;;;18.10;70.30;;;;;;5052905;28;21497;-84
2023/05/10 13:41:42;;;;;;;;;;;18.30;71.20;;;;;;5031361;28;19921;-84
2023/05/10 13:44:07;;;;;;;;;;;18.60;70.40;;;;;;5031390;28;19967;-85
2023/05/10 13:46:33;;;;;;;;;;;18.70;69.80;;;;;;5042027;28;19920;-86
2023/05/10 13:48:58;;;;;;;;;;;18.90;68.00;;;;;;5044103;28;20037;-86
2023/05/10 13:51:24;;;;;;;;;;;18.80;68.50;;;;;;5036895;28;19920;-89
2023/05/10 13:53:49;;;;;;;;;;;18.80;67.50;;;;;;5035823;28;19916;-88
2023/05/10 13:56:28;;;;;;;;;;;18.90;68.60;;;;;;5040031;28;19921;-91
2023/05/10 13:59:37;;;;;;;;;;;;;;;;;;;;;
2023/05/10 14:02:12;;;;;;;;;;;19.10;66.90;;;;;;4999259;28;19917;-91
2023/05/10 14:04:56;;;;;;;;;;;19.10;65.60;;;;;;5015401;28;19910;-91
2023/05/10 14:10:56;;;;;;;;;;;;;;;;;;;;;
2023/05/10 14:13:39;;;;;;;;;;;19.20;66.00;;;;;;4998552;28;19980;-91
2023/05/10 14:16:17;;;;;;;;;;;19.30;64.10;;;;;;5034465;28;20279;-90
2023/05/10 14:18:46;;;;;;;;;;;19.30;63.60;;;;;;5026721;28;19914;-92
2023/05/10 14:21:44;;;;;;;;;;;19.20;63.00;;;;;;5016357;28;19916;-91
2023/05/10 14:24:20;;;;;;;;;;;19.30;64.80;;;;;;5015895;28;20012;-92
2023/05/10 14:27:01;;;;;;;;;;;19.40;63.20;;;;;;5018453;28;19995;-92
2023/05/10 14:29:35;;;;;;;;;;;19.40;63.20;;;;;;5024963;28;19968;-93